createdAt,value
2018-04-22T02:26:05.573Z,17.21
2018-04-22T02:27:05.520Z,17.25
2018-04-22T02:28:58.593Z,17.22
2018-04-22T02:29:58.581Z,17.24
2018-04-22T02:31:51.662Z,17.22
2018-04-22T02:32:51.640Z,17.18
2018-04-22T02:33:51.766Z,17.18
2018-04-22T02:34:51.666Z,17.22
2018-04-22T02:35:51.660Z,17.22
2018-04-22T02:36:51.665Z,17.24
2018-04-22T02:37:51.675Z,17.25
2018-04-22T02:38:51.681Z,17.14
2018-04-22T02:39:51.694Z,17.10
2018-04-22T02:40:51.717Z,17.09
2018-04-22T02:41:51.714Z,17.06
2018-04-22T02:42:51.718Z,16.99
2018-04-22T02:43:51.733Z,17.05
2018-04-22T02:44:51.746Z,17.05
2018-04-22T02:45:51.753Z,17.05
2018-04-22T02:46:51.862Z,16.95
2018-04-22T02:47:51.774Z,16.92
2018-04-22T02:48:51.775Z,16.81
2018-04-22T02:49:51.789Z,16.81
2018-04-22T02:50:51.801Z,16.90
2018-04-22T02:51:51.814Z,16.98
2018-04-22T02:52:51.833Z,17.03
2018-04-22T02:53:51.837Z,17.05
2018-04-22T17:25:16.128Z,26.64
2018-04-22T17:26:16.062Z,26.64
2018-04-22T17:27:16.077Z,26.56
2018-04-22T17:28:16.097Z,26.53
2018-04-22T17:29:16.097Z,26.53
2018-04-22T17:30:16.108Z,26.61
2018-04-22T17:31:16.125Z,26.51
2018-04-22T17:32:16.158Z,26.39
2018-04-22T17:33:16.165Z,26.42
2018-04-22T17:34:16.170Z,26.50
2018-04-22T17:35:16.193Z,26.49
2018-04-22T17:36:16.195Z,26.38
2018-04-22T17:37:16.205Z,26.38
2018-04-22T17:38:16.233Z,26.36
2018-04-22T17:39:16.239Z,26.32
2018-04-22T17:40:16.350Z,26.32
2018-04-22T17:41:16.271Z,26.23
2018-04-22T17:42:16.292Z,26.12
2018-04-22T17:43:16.302Z,26.13
2018-04-22T17:44:16.318Z,26.13
2018-04-22T17:45:16.334Z,26.08
2018-04-22T17:46:16.354Z,26.00
2018-04-22T17:47:16.376Z,25.93
2018-04-22T17:48:16.379Z,25.93
2018-04-22T17:49:16.391Z,25.93
2018-04-22T17:50:16.415Z,25.82
2018-04-22T17:52:19.308Z,25.85
2018-04-22T17:53:16.527Z,25.86
2018-04-22T17:54:16.476Z,25.67
2018-04-22T17:55:16.531Z,25.71
2018-04-22T17:56:16.518Z,25.71
2018-04-22T17:57:16.535Z,25.71
2018-04-22T17:58:16.561Z,25.56
2018-04-22T17:59:16.579Z,25.66
2018-04-22T18:00:16.581Z,25.64
2018-04-22T18:01:16.600Z,25.56
2018-04-22T18:02:16.615Z,25.54
2018-04-22T18:03:16.630Z,25.51
2018-04-22T18:04:16.660Z,25.41
2018-04-22T18:05:16.666Z,25.39
2018-04-22T18:06:16.683Z,25.48
2018-04-22T18:07:16.710Z,25.41
2018-04-22T18:08:16.714Z,25.30
2018-04-22T18:09:16.734Z,25.36
2018-04-22T18:10:16.749Z,25.31
2018-04-22T18:11:16.776Z,25.23
2018-04-22T18:12:16.785Z,25.07
2018-04-22T18:13:16.815Z,25.17
2018-04-22T18:14:16.826Z,25.08
2018-04-22T18:15:16.839Z,25.12
2018-04-22T18:16:16.854Z,25.08
2018-04-22T18:17:16.873Z,24.99
2018-04-22T18:18:16.881Z,24.98
2018-04-22T18:19:16.910Z,24.93
2018-04-22T18:20:16.967Z,24.94
2018-04-22T18:21:17.004Z,24.89
2018-04-22T18:22:16.964Z,24.93
2018-04-22T18:23:16.971Z,24.89
2018-04-22T18:24:16.984Z,24.89
2018-04-22T18:25:17.001Z,24.93
2018-04-22T18:26:17.018Z,24.83
2018-04-22T18:27:17.034Z,24.84
2018-04-22T18:28:17.060Z,24.71
2018-04-22T18:29:17.076Z,24.80
2018-04-22T18:30:17.091Z,24.80
2018-04-22T18:31:17.116Z,24.75
2018-04-22T18:32:17.140Z,24.79
2018-04-22T18:33:17.144Z,24.71
2018-04-22T18:34:17.163Z,24.77
2018-04-22T18:35:17.169Z,24.83
2018-04-22T18:36:17.239Z,24.79
2018-04-22T18:37:17.205Z,24.86
2018-04-22T18:38:19.929Z,24.84
2018-04-22T18:39:17.247Z,24.79
2018-04-22T18:40:17.327Z,24.71
2018-04-22T18:41:17.277Z,24.68
2018-04-22T18:42:17.287Z,24.55
2018-04-22T18:43:17.311Z,24.46
2018-04-22T18:44:17.334Z,24.42
2018-04-22T18:45:17.357Z,24.42
2018-04-22T18:46:17.367Z,24.37
2018-04-22T18:47:17.368Z,24.30
2018-04-22T18:48:17.386Z,24.31
2018-04-22T18:49:17.411Z,24.19
2018-04-22T18:50:17.423Z,24.19
2018-04-22T18:51:17.440Z,24.14
2018-04-22T18:52:17.453Z,24.12
2018-04-22T18:53:17.482Z,24.11
2018-04-22T18:54:17.479Z,24.06
2018-04-22T18:55:17.498Z,24.05
2018-04-22T18:56:17.522Z,23.99
2018-04-22T18:57:17.527Z,23.93
2018-04-22T18:58:17.540Z,23.86
2018-04-22T18:59:17.567Z,23.79
2018-04-22T19:00:17.580Z,23.82
2018-04-22T19:01:17.609Z,23.79
2018-04-22T19:02:17.609Z,23.79
2018-04-22T19:03:17.642Z,23.77
2018-04-22T19:04:17.689Z,23.71
2018-04-22T19:05:17.713Z,23.64
2018-04-22T19:06:17.690Z,23.63
2018-04-22T19:07:17.696Z,23.67
2018-04-22T19:09:17.727Z,23.56
2018-04-22T19:10:17.740Z,23.63
2018-04-22T19:11:17.796Z,23.59
2018-04-22T19:12:17.769Z,23.62
2018-04-22T19:13:17.783Z,23.57
2018-04-22T19:14:17.788Z,23.50
2018-04-22T19:15:17.797Z,23.57
2018-04-22T19:16:17.841Z,23.52
2018-04-22T19:17:17.910Z,23.52
2018-04-22T19:18:17.845Z,23.49
2018-04-22T19:19:17.863Z,23.47
2018-04-22T19:20:17.877Z,23.41
2018-04-22T19:21:17.895Z,23.38
2018-04-22T19:22:17.917Z,23.38
2018-04-22T19:23:17.925Z,23.31
2018-04-22T19:24:17.956Z,23.32
2018-04-22T19:25:17.952Z,23.22
2018-04-22T19:26:17.979Z,23.22
2018-04-22T19:27:17.991Z,23.23
2018-04-22T19:28:18.052Z,23.23
2018-04-22T19:29:18.028Z,23.26
2018-04-22T19:30:18.042Z,23.16
2018-04-22T19:31:18.066Z,23.07
2018-04-22T19:32:18.069Z,23.07
2018-04-22T19:33:18.088Z,23.16
2018-04-22T19:34:18.105Z,23.09
2018-04-22T19:35:18.114Z,23.11
2018-04-22T19:36:18.117Z,23.01
2018-04-22T19:37:18.137Z,23.06
2018-04-22T19:38:18.155Z,23.01
2018-04-22T19:39:18.160Z,23.04
2018-04-22T19:40:18.217Z,23.03
2018-04-22T19:41:18.198Z,23.01
2018-04-22T19:42:18.209Z,23.00
2018-04-22T19:43:18.235Z,22.91
2018-04-22T19:44:18.243Z,22.84
2018-04-22T19:45:18.256Z,22.85
2018-04-22T19:46:18.266Z,22.91
2018-04-22T19:47:18.282Z,22.79
2018-04-22T19:48:18.318Z,22.72
2018-04-22T19:49:18.306Z,22.72
2018-04-22T19:50:18.336Z,22.74
2018-04-22T19:51:18.344Z,22.74
2018-04-22T19:52:18.364Z,22.74
2018-04-22T19:53:18.374Z,22.82
2018-04-22T19:54:18.399Z,22.72
2018-04-22T19:55:18.409Z,22.88
2018-04-22T19:56:18.416Z,22.69
2018-04-22T19:57:18.437Z,22.86
2018-04-22T19:58:18.458Z,22.88
2018-04-22T19:59:18.472Z,22.86
2018-04-22T20:00:18.474Z,22.94
2018-04-22T20:01:18.483Z,23.00
2018-04-22T20:02:18.504Z,22.99
2018-04-22T20:03:18.518Z,22.99
2018-04-22T20:04:18.538Z,23.09
2018-04-22T20:05:18.554Z,22.96
2018-04-22T20:06:18.567Z,22.96
2018-04-22T20:07:18.589Z,23.00
2018-04-22T20:08:18.599Z,22.96
2018-04-22T20:09:18.604Z,23.04
2018-04-22T20:10:18.712Z,23.11
2018-04-22T20:11:18.632Z,23.12
2018-04-22T20:12:18.649Z,23.07
2018-04-22T20:13:18.678Z,23.15
2018-04-22T20:14:18.675Z,23.09
2018-04-22T20:15:18.689Z,23.11
2018-04-22T20:16:18.708Z,23.11
2018-04-22T20:17:18.735Z,23.01
2018-04-22T20:18:18.735Z,23.09
2018-04-22T20:19:18.753Z,23.00
2018-04-22T20:20:18.784Z,23.04
2018-04-22T20:21:18.790Z,22.88
2018-04-22T20:22:18.802Z,22.89
2018-04-22T20:23:18.811Z,22.86
2018-04-22T20:24:18.825Z,22.85
2018-04-22T20:25:18.847Z,22.88
2018-04-22T20:26:18.860Z,22.85
2018-04-22T20:27:18.870Z,22.85
2018-04-22T20:28:18.899Z,22.84
2018-04-22T20:29:18.904Z,22.93
2018-04-22T20:30:18.917Z,22.82
2018-04-22T20:31:18.931Z,22.74
2018-04-22T20:32:18.957Z,22.76
2018-04-22T20:33:18.965Z,22.74
2018-04-22T20:34:18.976Z,22.76
2018-04-22T20:35:18.987Z,22.85
2018-04-22T20:36:19.004Z,22.84
2018-04-22T20:37:19.029Z,22.89
2018-04-22T20:38:19.055Z,22.88
2018-04-22T20:39:19.052Z,22.88
2018-04-22T20:40:19.064Z,23.01
2018-04-22T20:41:19.086Z,23.00
2018-04-22T20:42:19.096Z,23.01
2018-04-22T20:43:19.115Z,22.99
2018-04-22T20:44:19.145Z,22.99
2018-04-22T20:45:19.147Z,23.01
2018-04-22T20:46:19.158Z,23.00
2018-04-22T20:47:19.177Z,22.97
2018-04-22T20:48:19.196Z,22.97
2018-04-22T20:49:19.193Z,22.99
2018-04-22T20:50:19.243Z,23.01
2018-04-22T20:51:19.227Z,23.06
2018-04-22T20:52:19.251Z,23.12
2018-04-22T20:53:19.272Z,23.12
2018-04-22T20:54:19.328Z,23.04
2018-04-22T20:55:19.295Z,22.99
2018-04-22T20:56:19.299Z,23.00
2018-04-22T20:57:19.337Z,23.04
2018-04-22T20:58:19.336Z,22.97
2018-04-22T20:59:19.365Z,23.03
2018-04-22T21:00:19.369Z,23.09
2018-04-22T21:01:19.373Z,23.06
2018-04-22T21:02:19.385Z,23.03
2018-04-22T21:03:19.414Z,23.04
2018-04-22T21:04:19.419Z,23.06
2018-04-22T21:05:19.433Z,23.03
2018-04-22T21:06:19.459Z,23.03
2018-04-22T21:07:19.460Z,23.00
2018-04-22T21:08:19.483Z,23.04
2018-04-22T21:09:19.510Z,23.04
2018-04-22T21:10:19.527Z,23.06
2018-04-22T21:11:19.519Z,22.99
2018-04-22T21:12:19.547Z,22.94
2018-04-22T21:13:19.554Z,23.06
2018-04-22T21:14:19.564Z,23.11
2018-04-22T21:15:19.591Z,23.06
2018-04-22T21:16:19.596Z,22.99
2018-04-22T21:17:19.693Z,22.93
2018-04-22T21:18:19.624Z,23.01
2018-04-22T21:19:19.660Z,23.03
2018-04-22T21:20:19.660Z,23.01
2018-04-22T21:21:19.676Z,23.01
2018-04-22T21:22:19.692Z,22.94
2018-04-22T21:23:19.708Z,22.86
2018-04-22T21:24:19.725Z,22.86
2018-04-22T21:25:19.741Z,22.84
2018-04-22T21:26:19.759Z,22.84
2018-04-22T21:27:19.780Z,22.88
2018-04-22T21:28:19.798Z,22.82
2018-04-22T21:29:19.790Z,22.79
2018-04-22T21:30:19.812Z,22.70
2018-04-22T21:31:19.821Z,22.78
2018-04-22T21:32:19.838Z,22.76
2018-04-22T21:33:19.862Z,22.74
2018-04-22T21:34:19.869Z,22.64
2018-04-22T21:35:19.909Z,22.67
2018-04-22T21:36:19.907Z,22.67
2018-04-22T21:37:19.915Z,22.57
2018-04-22T21:38:19.922Z,22.66
2018-04-22T21:39:19.945Z,22.57
2018-04-22T21:40:19.961Z,22.66
2018-04-22T21:41:19.977Z,22.52
2018-04-22T21:42:19.993Z,22.60
2018-04-22T21:43:20.011Z,22.48
2018-04-22T21:44:20.032Z,22.46
2018-04-22T21:45:20.047Z,22.46
2018-04-22T21:46:20.048Z,22.42
2018-04-22T21:47:20.067Z,22.39
2018-04-22T21:48:20.083Z,22.20
2018-04-22T21:49:20.094Z,22.26
2018-04-22T21:50:20.103Z,22.19
2018-04-22T21:51:20.123Z,22.24
2018-04-22T21:52:20.140Z,22.19
2018-04-22T21:53:20.143Z,22.15
2018-04-22T21:54:20.172Z,22.20
2018-04-22T21:55:20.176Z,22.17
2018-04-22T21:56:20.200Z,22.09
2018-04-22T21:57:20.228Z,22.04
2018-04-22T21:58:20.226Z,22.08
2018-04-22T21:59:20.245Z,22.08
2018-04-22T22:00:20.245Z,22.08
2018-04-22T22:01:20.276Z,22.12
2018-04-22T22:02:20.323Z,22.09
2018-04-22T22:03:20.304Z,22.04
2018-04-22T22:04:20.346Z,21.98
2018-04-22T22:05:20.317Z,22.04
2018-04-22T22:06:20.341Z,22.01
2018-04-22T22:07:20.345Z,21.99
2018-04-22T22:08:20.376Z,22.01
2018-04-22T22:09:20.391Z,22.01
2018-04-22T22:10:20.397Z,22.01
2018-04-22T22:11:20.414Z,22.04
2018-04-22T22:12:20.435Z,22.05
2018-04-22T22:13:20.450Z,22.05
2018-04-22T22:14:20.459Z,22.08
2018-04-22T22:15:20.482Z,22.06
2018-04-22T22:16:20.483Z,22.06
2018-04-22T22:17:20.500Z,22.04
2018-04-22T22:18:20.517Z,21.98
2018-04-22T22:19:20.539Z,22.06
2018-04-22T22:20:20.544Z,21.96
2018-04-22T22:21:20.555Z,22.04
2018-04-22T22:22:20.594Z,22.06
2018-04-22T22:23:20.588Z,22.02
2018-04-22T22:24:20.607Z,21.96
2018-04-22T22:25:20.610Z,21.94
2018-04-22T22:26:20.641Z,21.94
2018-04-22T22:27:20.653Z,21.93
2018-04-22T22:28:20.679Z,21.89
2018-04-22T22:29:20.674Z,21.90
2018-04-22T22:30:20.698Z,21.83
2018-04-22T22:31:20.711Z,21.90
2018-04-22T22:32:20.730Z,21.82
2018-04-22T22:33:20.781Z,21.82
2018-04-22T22:34:20.769Z,21.82
2018-04-22T22:35:20.771Z,21.74
2018-04-22T22:36:20.786Z,21.74
2018-04-22T22:37:20.790Z,21.74
2018-04-22T22:38:20.804Z,21.68
2018-04-22T22:39:20.826Z,21.59
2018-04-22T22:40:20.842Z,21.67
2018-04-22T22:41:20.858Z,21.70
2018-04-22T22:43:20.888Z,21.64
2018-04-22T22:44:20.893Z,21.53
2018-04-22T22:45:20.913Z,21.46
2018-04-22T22:46:20.986Z,21.46
2018-04-22T22:47:20.941Z,21.42
2018-04-22T22:48:20.963Z,21.48
2018-04-22T22:49:20.979Z,21.42
2018-04-22T22:50:20.984Z,21.40
2018-04-22T22:51:20.998Z,21.40
2018-04-22T22:52:21.016Z,21.33
2018-04-22T22:53:21.033Z,21.26
2018-04-22T22:54:21.047Z,21.13
2018-04-22T22:55:21.061Z,21.16
2018-04-22T22:56:21.083Z,21.16
2018-04-22T22:57:21.081Z,21.19
2018-04-22T22:58:21.100Z,21.12
2018-04-22T22:59:21.116Z,21.12
2018-04-22T23:00:21.127Z,21.19
2018-04-22T23:01:21.151Z,21.12
2018-04-22T23:02:21.163Z,21.08
2018-04-22T23:03:21.181Z,21.16
2018-04-22T23:04:21.186Z,21.12
2018-04-22T23:05:21.216Z,21.12
2018-04-22T23:06:21.225Z,21.05
2018-04-22T23:07:21.241Z,21.01
2018-04-22T23:08:21.244Z,21.09
2018-04-22T23:09:21.261Z,21.05
2018-04-22T23:10:21.272Z,21.11
2018-04-22T23:11:21.294Z,21.08
2018-04-22T23:12:21.306Z,21.08
2018-04-22T23:13:21.314Z,21.09
2018-04-22T23:14:21.352Z,21.05
2018-04-22T23:15:21.345Z,21.05
2018-04-22T23:16:21.367Z,21.00
2018-04-22T23:17:21.377Z,21.01
2018-04-22T23:18:21.392Z,21.05
2018-04-22T23:19:21.416Z,21.05
2018-04-22T23:20:21.421Z,21.01
2018-04-22T23:21:21.433Z,21.00
2018-04-22T23:22:21.450Z,21.01
2018-04-22T23:23:21.460Z,21.01
2018-04-22T23:24:21.472Z,21.01
2018-04-22T23:25:21.492Z,21.00
2018-04-22T23:26:21.507Z,20.94
2018-04-22T23:27:21.526Z,21.00
2018-04-22T23:28:21.545Z,20.96
2018-04-22T23:29:21.547Z,21.01
2018-04-22T23:30:21.563Z,21.03
2018-04-22T23:31:21.590Z,21.08
2018-04-22T23:32:21.593Z,21.09
2018-04-22T23:33:21.603Z,21.11
2018-04-22T23:34:21.623Z,21.12
2018-04-22T23:35:21.648Z,21.01
2018-04-22T23:36:21.643Z,21.01
2018-04-22T23:37:21.665Z,21.01
2018-04-22T23:39:21.698Z,20.75
2018-04-22T23:40:21.699Z,20.76
2018-04-22T23:41:21.721Z,20.81
2018-04-22T23:42:21.740Z,20.83
2018-04-22T23:43:21.774Z,20.85
2018-04-22T23:44:21.758Z,20.72
2018-04-22T23:45:21.770Z,20.64
2018-04-22T23:46:21.788Z,20.51
2018-04-22T23:47:21.807Z,20.38
2018-04-22T23:48:21.816Z,20.30
2018-04-22T23:49:21.840Z,20.44
2018-04-22T23:50:21.847Z,20.42
2018-04-22T23:51:21.870Z,20.56
2018-04-22T23:52:21.872Z,20.56
2018-04-22T23:53:21.881Z,20.53
2018-04-22T23:54:21.901Z,20.42
2018-04-22T23:55:21.913Z,20.40
2018-04-22T23:56:21.923Z,20.41
2018-04-22T23:57:21.937Z,20.35
2018-04-22T23:58:21.953Z,20.35
2018-04-22T23:59:21.961Z,20.33
